sensor_id;sensor_type;location;lat;lon;timestamp;P1;durP1;ratioP1;P2;durP2;ratioP2
21326;SDS011;10822;51.532;6.770;2022-11-24T00:01:39;14.30;;;4.13;;
21326;SDS011;10822;51.532;6.770;2022-11-24T00:04:05;16.40;;;4.32;;
21326;SDS011;10822;51.532;6.770;2022-11-24T00:06:32;15.95;;;3.90;;
21326;SDS011;10822;51.532;6.770;2022-11-24T00:08:59;16.42;;;3.88;;
21326;SDS011;10822;51.532;6.770;2022-11-24T00:11:30;17.00;;;4.28;;
21326;SDS011;10822;51.532;6.770;2022-11-24T00:13:56;14.05;;;4.10;;
21326;SDS011;10822;51.532;6.770;2022-11-24T00:16:26;12.05;;;3.47;;
21326;SDS011;10822;51.532;6.770;2022-11-24T00:18:54;12.98;;;3.60;;
21326;SDS011;10822;51.532;6.770;2022-11-24T00:21:20;16.50;;;4.22;;
21326;SDS011;10822;51.532;6.770;2022-11-24T00:23:47;20.00;;;4.22;;
21326;SDS011;10822;51.532;6.770;2022-11-24T00:26:14;14.07;;;3.97;;
21326;SDS011;10822;51.532;6.770;2022-11-24T00:28:41;17.90;;;4.40;;
21326;SDS011;10822;51.532;6.770;2022-11-24T00:31:15;12.27;;;3.55;;
21326;SDS011;10822;51.532;6.770;2022-11-24T00:33:41;20.75;;;6.47;;
21326;SDS011;10822;51.532;6.770;2022-11-24T00:36:07;24.10;;;5.30;;
21326;SDS011;10822;51.532;6.770;2022-11-24T00:38:33;16.60;;;4.40;;
21326;SDS011;10822;51.532;6.770;2022-11-24T00:40:59;19.65;;;4.40;;
21326;SDS011;10822;51.532;6.770;2022-11-24T00:43:25;15.75;;;4.20;;
21326;SDS011;10822;51.532;6.770;2022-11-24T00:45:51;12.05;;;2.95;;
21326;SDS011;10822;51.532;6.770;2022-11-24T00:48:17;12.32;;;3.38;;
21326;SDS011;10822;51.532;6.770;2022-11-24T00:50:44;15.93;;;3.70;;
21326;SDS011;10822;51.532;6.770;2022-11-24T00:53:10;12.05;;;2.97;;
21326;SDS011;10822;51.532;6.770;2022-11-24T00:55:36;16.48;;;3.83;;
21326;SDS011;10822;51.532;6.770;2022-11-24T00:58:01;12.40;;;2.85;;
21326;SDS011;10822;51.532;6.770;2022-11-24T01:00:27;11.77;;;3.08;;
21326;SDS011;10822;51.532;6.770;2022-11-24T01:02:53;13.18;;;2.90;;
21326;SDS011;10822;51.532;6.770;2022-11-24T01:05:19;13.52;;;3.00;;
21326;SDS011;10822;51.532;6.770;2022-11-24T01:07:46;11.45;;;2.95;;
21326;SDS011;10822;51.532;6.770;2022-11-24T01:10:12;12.60;;;2.85;;
21326;SDS011;10822;51.532;6.770;2022-11-24T01:12:38;11.55;;;2.70;;
21326;SDS011;10822;51.532;6.770;2022-11-24T01:15:04;10.25;;;3.13;;
21326;SDS011;10822;51.532;6.770;2022-11-24T01:17:30;18.85;;;3.22;;
21326;SDS011;10822;51.532;6.770;2022-11-24T01:19:56;14.23;;;3.08;;
21326;SDS011;10822;51.532;6.770;2022-11-24T01:22:22;17.23;;;3.67;;
21326;SDS011;10822;51.532;6.770;2022-11-24T01:24:48;15.82;;;3.30;;
21326;SDS011;10822;51.532;6.770;2022-11-24T01:27:14;15.18;;;3.00;;
21326;SDS011;10822;51.532;6.770;2022-11-24T01:29:40;12.38;;;2.90;;
21326;SDS011;10822;51.532;6.770;2022-11-24T01:32:06;12.25;;;3.08;;
21326;SDS011;10822;51.532;6.770;2022-11-24T01:34:32;16.95;;;2.95;;
21326;SDS011;10822;51.532;6.770;2022-11-24T01:36:58;12.95;;;3.25;;
21326;SDS011;10822;51.532;6.770;2022-11-24T01:39:24;9.68;;;2.60;;
21326;SDS011;10822;51.532;6.770;2022-11-24T01:41:50;12.00;;;2.95;;
21326;SDS011;10822;51.532;6.770;2022-11-24T01:44:23;17.58;;;3.28;;
21326;SDS011;10822;51.532;6.770;2022-11-24T01:46:51;15.10;;;2.95;;
21326;SDS011;10822;51.532;6.770;2022-11-24T01:52:11;15.05;;;2.40;;
21326;SDS011;10822;51.532;6.770;2022-11-24T01:54:41;12.85;;;3.13;;
21326;SDS011;10822;51.532;6.770;2022-11-24T01:57:19;10.70;;;2.60;;
21326;SDS011;10822;51.532;6.770;2022-11-24T01:59:46;13.85;;;3.08;;
21326;SDS011;10822;51.532;6.770;2022-11-24T02:02:13;17.33;;;3.50;;
21326;SDS011;10822;51.532;6.770;2022-11-24T02:04:39;19.20;;;3.58;;
21326;SDS011;10822;51.532;6.770;2022-11-24T02:07:06;14.63;;;3.95;;
21326;SDS011;10822;51.532;6.770;2022-11-24T02:09:35;16.25;;;3.45;;
21326;SDS011;10822;51.532;6.770;2022-11-24T02:12:04;18.23;;;3.80;;
21326;SDS011;10822;51.532;6.770;2022-11-24T02:14:30;12.30;;;3.33;;
21326;SDS011;10822;51.532;6.770;2022-11-24T02:16:58;15.88;;;3.42;;
21326;SDS011;10822;51.532;6.770;2022-11-24T02:19:58;14.98;;;2.67;;
21326;SDS011;10822;51.532;6.770;2022-11-24T02:24:55;9.02;;;2.38;;
21326;SDS011;10822;51.532;6.770;2022-11-24T02:27:22;11.90;;;2.55;;
21326;SDS011;10822;51.532;6.770;2022-11-24T02:29:48;11.55;;;2.60;;
21326;SDS011;10822;51.532;6.770;2022-11-24T02:32:14;13.73;;;2.58;;
21326;SDS011;10822;51.532;6.770;2022-11-24T02:34:40;13.48;;;2.60;;
21326;SDS011;10822;51.532;6.770;2022-11-24T02:37:06;11.40;;;2.72;;
21326;SDS011;10822;51.532;6.770;2022-11-24T02:39:32;13.63;;;2.80;;
21326;SDS011;10822;51.532;6.770;2022-11-24T02:42:00;12.43;;;2.65;;
21326;SDS011;10822;51.532;6.770;2022-11-24T02:44:28;11.90;;;2.40;;
21326;SDS011;10822;51.532;6.770;2022-11-24T02:47:02;12.20;;;2.60;;
21326;SDS011;10822;51.532;6.770;2022-11-24T02:49:28;13.88;;;2.00;;
21326;SDS011;10822;51.532;6.770;2022-11-24T02:51:54;15.23;;;2.78;;
21326;SDS011;10822;51.532;6.770;2022-11-24T02:54:20;14.88;;;2.00;;
21326;SDS011;10822;51.532;6.770;2022-11-24T02:56:47;10.43;;;2.42;;
21326;SDS011;10822;51.532;6.770;2022-11-24T02:59:13;12.10;;;3.05;;
21326;SDS011;10822;51.532;6.770;2022-11-24T03:01:38;11.65;;;2.75;;
21326;SDS011;10822;51.532;6.770;2022-11-24T03:04:04;11.18;;;2.67;;
21326;SDS011;10822;51.532;6.770;2022-11-24T03:06:30;12.85;;;3.15;;
21326;SDS011;10822;51.532;6.770;2022-11-24T03:08:56;15.50;;;3.08;;
21326;SDS011;10822;51.532;6.770;2022-11-24T03:11:22;12.90;;;2.55;;
21326;SDS011;10822;51.532;6.770;2022-11-24T03:13:48;14.73;;;3.28;;
21326;SDS011;10822;51.532;6.770;2022-11-24T03:16:14;11.43;;;2.53;;
21326;SDS011;10822;51.532;6.770;2022-11-24T03:18:40;12.05;;;2.75;;
21326;SDS011;10822;51.532;6.770;2022-11-24T03:21:06;12.80;;;3.05;;
21326;SDS011;10822;51.532;6.770;2022-11-24T03:23:33;11.90;;;2.50;;
21326;SDS011;10822;51.532;6.770;2022-11-24T03:26:08;20.17;;;3.08;;
21326;SDS011;10822;51.532;6.770;2022-11-24T03:28:35;15.77;;;2.70;;
21326;SDS011;10822;51.532;6.770;2022-11-24T03:31:01;11.95;;;2.70;;
21326;SDS011;10822;51.532;6.770;2022-11-24T03:33:27;14.57;;;2.47;;
21326;SDS011;10822;51.532;6.770;2022-11-24T03:35:54;15.40;;;2.70;;
21326;SDS011;10822;51.532;6.770;2022-11-24T03:38:20;12.30;;;2.30;;
21326;SDS011;10822;51.532;6.770;2022-11-24T03:40:46;15.07;;;3.30;;
21326;SDS011;10822;51.532;6.770;2022-11-24T03:43:12;14.75;;;2.85;;
21326;SDS011;10822;51.532;6.770;2022-11-24T03:45:37;17.35;;;2.85;;
21326;SDS011;10822;51.532;6.770;2022-11-24T03:48:04;15.68;;;2.63;;
21326;SDS011;10822;51.532;6.770;2022-11-24T03:50:30;14.05;;;2.75;;
21326;SDS011;10822;51.532;6.770;2022-11-24T03:52:56;15.63;;;3.40;;
21326;SDS011;10822;51.532;6.770;2022-11-24T03:55:22;14.75;;;3.42;;
21326;SDS011;10822;51.532;6.770;2022-11-24T03:57:48;14.82;;;2.90;;
21326;SDS011;10822;51.532;6.770;2022-11-24T04:00:14;12.93;;;3.25;;
21326;SDS011;10822;51.532;6.770;2022-11-24T04:02:41;17.25;;;3.65;;
21326;SDS011;10822;51.532;6.770;2022-11-24T04:05:07;14.07;;;3.50;;
21326;SDS011;10822;51.532;6.770;2022-11-24T04:07:33;12.02;;;3.10;;
21326;SDS011;10822;51.532;6.770;2022-11-24T04:09:59;14.10;;;3.13;;
21326;SDS011;10822;51.532;6.770;2022-11-24T04:12:25;12.70;;;2.92;;
21326;SDS011;10822;51.532;6.770;2022-11-24T04:15:10;14.85;;;3.35;;
21326;SDS011;10822;51.532;6.770;2022-11-24T04:17:36;20.83;;;3.88;;
21326;SDS011;10822;51.532;6.770;2022-11-24T04:20:02;18.30;;;3.67;;
21326;SDS011;10822;51.532;6.770;2022-11-24T04:22:29;16.58;;;3.97;;
21326;SDS011;10822;51.532;6.770;2022-11-24T04:24:55;10.98;;;2.67;;
21326;SDS011;10822;51.532;6.770;2022-11-24T04:27:21;15.65;;;3.10;;
21326;SDS011;10822;51.532;6.770;2022-11-24T04:29:47;14.32;;;3.40;;
21326;SDS011;10822;51.532;6.770;2022-11-24T04:32:13;21.05;;;3.67;;
21326;SDS011;10822;51.532;6.770;2022-11-24T04:34:39;17.45;;;3.85;;
21326;SDS011;10822;51.532;6.770;2022-11-24T04:37:05;16.15;;;3.15;;
21326;SDS011;10822;51.532;6.770;2022-11-24T04:39:31;20.58;;;3.20;;
21326;SDS011;10822;51.532;6.770;2022-11-24T04:41:57;18.42;;;4.10;;
21326;SDS011;10822;51.532;6.770;2022-11-24T04:44:23;18.40;;;4.03;;
21326;SDS011;10822;51.532;6.770;2022-11-24T04:46:49;13.68;;;4.13;;
21326;SDS011;10822;51.532;6.770;2022-11-24T04:49:15;19.98;;;4.13;;
21326;SDS011;10822;51.532;6.770;2022-11-24T04:51:41;17.55;;;4.93;;
21326;SDS011;10822;51.532;6.770;2022-11-24T04:56:35;16.48;;;4.32;;
21326;SDS011;10822;51.532;6.770;2022-11-24T04:59:01;22.13;;;4.38;;
21326;SDS011;10822;51.532;6.770;2022-11-24T05:01:28;15.98;;;3.80;;
21326;SDS011;10822;51.532;6.770;2022-11-24T05:03:54;15.80;;;4.20;;
21326;SDS011;10822;51.532;6.770;2022-11-24T05:06:21;15.43;;;3.70;;
21326;SDS011;10822;51.532;6.770;2022-11-24T05:08:47;21.67;;;4.75;;
21326;SDS011;10822;51.532;6.770;2022-11-24T05:11:13;16.35;;;3.97;;
21326;SDS011;10822;51.532;6.770;2022-11-24T05:13:40;13.80;;;3.90;;
21326;SDS011;10822;51.532;6.770;2022-11-24T05:16:06;18.20;;;3.83;;
21326;SDS011;10822;51.532;6.770;2022-11-24T05:18:32;17.35;;;4.22;;
21326;SDS011;10822;51.532;6.770;2022-11-24T05:20:58;18.70;;;3.55;;
21326;SDS011;10822;51.532;6.770;2022-11-24T05:23:24;16.10;;;2.83;;
21326;SDS011;10822;51.532;6.770;2022-11-24T05:25:50;16.75;;;3.20;;
21326;SDS011;10822;51.532;6.770;2022-11-24T05:28:17;14.25;;;2.97;;
21326;SDS011;10822;51.532;6.770;2022-11-24T05:30:43;13.95;;;3.35;;
21326;SDS011;10822;51.532;6.770;2022-11-24T05:33:13;11.70;;;2.75;;
21326;SDS011;10822;51.532;6.770;2022-11-24T05:35:47;15.52;;;3.45;;
21326;SDS011;10822;51.532;6.770;2022-11-24T05:38:13;16.38;;;3.63;;
21326;SDS011;10822;51.532;6.770;2022-11-24T05:40:39;16.38;;;3.33;;
21326;SDS011;10822;51.532;6.770;2022-11-24T05:43:12;13.77;;;3.28;;
21326;SDS011;10822;51.532;6.770;2022-11-24T05:45:38;20.65;;;3.22;;
21326;SDS011;10822;51.532;6.770;2022-11-24T05:48:05;23.33;;;4.35;;
21326;SDS011;10822;51.532;6.770;2022-11-24T05:50:31;18.65;;;4.43;;
21326;SDS011;10822;51.532;6.770;2022-11-24T05:53:00;20.20;;;5.20;;
21326;SDS011;10822;51.532;6.770;2022-11-24T05:55:26;18.77;;;4.30;;
21326;SDS011;10822;51.532;6.770;2022-11-24T05:57:59;16.13;;;3.88;;
21326;SDS011;10822;51.532;6.770;2022-11-24T06:00:25;16.98;;;4.13;;
21326;SDS011;10822;51.532;6.770;2022-11-24T06:02:51;22.20;;;4.28;;
21326;SDS011;10822;51.532;6.770;2022-11-24T06:05:17;21.15;;;4.78;;
21326;SDS011;10822;51.532;6.770;2022-11-24T06:07:43;21.33;;;5.15;;
21326;SDS011;10822;51.532;6.770;2022-11-24T06:10:09;20.17;;;4.88;;
21326;SDS011;10822;51.532;6.770;2022-11-24T06:12:35;16.38;;;4.72;;
21326;SDS011;10822;51.532;6.770;2022-11-24T06:15:01;23.90;;;5.63;;
21326;SDS011;10822;51.532;6.770;2022-11-24T06:17:27;20.35;;;5.40;;
21326;SDS011;10822;51.532;6.770;2022-11-24T06:19:53;23.10;;;6.10;;
21326;SDS011;10822;51.532;6.770;2022-11-24T06:22:19;24.27;;;5.95;;
21326;SDS011;10822;51.532;6.770;2022-11-24T06:24:46;19.75;;;5.13;;
21326;SDS011;10822;51.532;6.770;2022-11-24T06:27:14;27.67;;;6.28;;
21326;SDS011;10822;51.532;6.770;2022-11-24T06:29:40;23.27;;;4.90;;
21326;SDS011;10822;51.532;6.770;2022-11-24T06:32:06;26.73;;;5.22;;
21326;SDS011;10822;51.532;6.770;2022-11-24T06:34:32;25.92;;;5.82;;
21326;SDS011;10822;51.532;6.770;2022-11-24T06:36:58;22.45;;;5.07;;
21326;SDS011;10822;51.532;6.770;2022-11-24T06:39:24;20.05;;;5.65;;
21326;SDS011;10822;51.532;6.770;2022-11-24T06:41:50;18.80;;;5.15;;
21326;SDS011;10822;51.532;6.770;2022-11-24T06:44:16;18.52;;;3.97;;
21326;SDS011;10822;51.532;6.770;2022-11-24T06:46:42;20.45;;;4.85;;
21326;SDS011;10822;51.532;6.770;2022-11-24T06:49:08;17.85;;;3.78;;
21326;SDS011;10822;51.532;6.770;2022-11-24T06:51:34;14.95;;;4.00;;
21326;SDS011;10822;51.532;6.770;2022-11-24T06:54:00;17.58;;;4.50;;
21326;SDS011;10822;51.532;6.770;2022-11-24T06:56:26;15.38;;;3.92;;
21326;SDS011;10822;51.532;6.770;2022-11-24T06:58:52;20.17;;;3.95;;
21326;SDS011;10822;51.532;6.770;2022-11-24T07:01:19;14.23;;;3.15;;
21326;SDS011;10822;51.532;6.770;2022-11-24T07:03:46;14.98;;;3.20;;
21326;SDS011;10822;51.532;6.770;2022-11-24T07:06:12;11.52;;;3.22;;
21326;SDS011;10822;51.532;6.770;2022-11-24T07:08:38;17.73;;;3.65;;
21326;SDS011;10822;51.532;6.770;2022-11-24T07:11:04;18.58;;;4.00;;
21326;SDS011;10822;51.532;6.770;2022-11-24T07:13:31;15.00;;;4.35;;
21326;SDS011;10822;51.532;6.770;2022-11-24T07:15:56;16.67;;;3.85;;
21326;SDS011;10822;51.532;6.770;2022-11-24T07:18:22;18.00;;;3.80;;
21326;SDS011;10822;51.532;6.770;2022-11-24T07:20:48;11.75;;;4.07;;
21326;SDS011;10822;51.532;6.770;2022-11-24T07:23:15;13.57;;;4.57;;
21326;SDS011;10822;51.532;6.770;2022-11-24T07:25:41;14.15;;;3.85;;
21326;SDS011;10822;51.532;6.770;2022-11-24T07:28:07;11.10;;;4.07;;
21326;SDS011;10822;51.532;6.770;2022-11-24T07:30:33;16.25;;;4.20;;
21326;SDS011;10822;51.532;6.770;2022-11-24T07:33:00;11.48;;;3.85;;
21326;SDS011;10822;51.532;6.770;2022-11-24T07:35:26;10.73;;;4.28;;
21326;SDS011;10822;51.532;6.770;2022-11-24T07:37:53;9.70;;;2.75;;
21326;SDS011;10822;51.532;6.770;2022-11-24T07:40:19;10.90;;;3.58;;
21326;SDS011;10822;51.532;6.770;2022-11-24T07:42:45;13.60;;;3.83;;
21326;SDS011;10822;51.532;6.770;2022-11-24T07:45:11;12.65;;;3.42;;
21326;SDS011;10822;51.532;6.770;2022-11-24T07:47:38;9.20;;;3.38;;
21326;SDS011;10822;51.532;6.770;2022-11-24T07:50:04;9.65;;;3.30;;
21326;SDS011;10822;51.532;6.770;2022-11-24T07:52:30;10.02;;;3.35;;
21326;SDS011;10822;51.532;6.770;2022-11-24T07:54:56;11.52;;;3.55;;
21326;SDS011;10822;51.532;6.770;2022-11-24T07:57:22;12.20;;;4.63;;
21326;SDS011;10822;51.532;6.770;2022-11-24T07:59:48;11.95;;;3.33;;
21326;SDS011;10822;51.532;6.770;2022-11-24T08:02:14;9.77;;;2.80;;
21326;SDS011;10822;51.532;6.770;2022-11-24T08:04:40;7.63;;;2.22;;
21326;SDS011;10822;51.532;6.770;2022-11-24T08:07:06;7.18;;;1.40;;
21326;SDS011;10822;51.532;6.770;2022-11-24T08:09:32;4.80;;;1.65;;
21326;SDS011;10822;51.532;6.770;2022-11-24T08:11:57;8.30;;;2.22;;
21326;SDS011;10822;51.532;6.770;2022-11-24T08:14:23;7.38;;;1.70;;
21326;SDS011;10822;51.532;6.770;2022-11-24T08:16:49;5.50;;;1.52;;
21326;SDS011;10822;51.532;6.770;2022-11-24T08:19:15;5.45;;;1.23;;
21326;SDS011;10822;51.532;6.770;2022-11-24T08:21:41;7.88;;;1.95;;
21326;SDS011;10822;51.532;6.770;2022-11-24T08:24:07;6.25;;;1.33;;
21326;SDS011;10822;51.532;6.770;2022-11-24T08:26:33;6.75;;;1.30;;
21326;SDS011;10822;51.532;6.770;2022-11-24T08:28:59;10.02;;;1.35;;
21326;SDS011;10822;51.532;6.770;2022-11-24T08:31:26;6.25;;;1.23;;
21326;SDS011;10822;51.532;6.770;2022-11-24T08:33:57;5.38;;;1.55;;
21326;SDS011;10822;51.532;6.770;2022-11-24T08:36:23;4.47;;;1.15;;
21326;SDS011;10822;51.532;6.770;2022-11-24T08:38:52;3.47;;;0.90;;
21326;SDS011;10822;51.532;6.770;2022-11-24T08:41:18;4.10;;;1.00;;
21326;SDS011;10822;51.532;6.770;2022-11-24T08:43:44;6.32;;;1.05;;
21326;SDS011;10822;51.532;6.770;2022-11-24T08:46:11;5.65;;;1.13;;
21326;SDS011;10822;51.532;6.770;2022-11-24T08:48:38;4.78;;;0.98;;
21326;SDS011;10822;51.532;6.770;2022-11-24T08:51:08;6.43;;;1.25;;
21326;SDS011;10822;51.532;6.770;2022-11-24T08:53:34;8.07;;;1.13;;
21326;SDS011;10822;51.532;6.770;2022-11-24T08:56:01;4.38;;;1.10;;
21326;SDS011;10822;51.532;6.770;2022-11-24T08:58:27;3.63;;;1.20;;
21326;SDS011;10822;51.532;6.770;2022-11-24T09:00:53;8.98;;;1.40;;
21326;SDS011;10822;51.532;6.770;2022-11-24T09:03:19;4.05;;;1.17;;
21326;SDS011;10822;51.532;6.770;2022-11-24T09:05:45;6.32;;;1.10;;
21326;SDS011;10822;51.532;6.770;2022-11-24T09:08:11;5.07;;;1.25;;
21326;SDS011;10822;51.532;6.770;2022-11-24T09:10:37;5.03;;;0.98;;
21326;SDS011;10822;51.532;6.770;2022-11-24T09:13:03;6.70;;;1.52;;
21326;SDS011;10822;51.532;6.770;2022-11-24T09:15:29;6.90;;;1.40;;
21326;SDS011;10822;51.532;6.770;2022-11-24T09:17:56;6.22;;;1.30;;
21326;SDS011;10822;51.532;6.770;2022-11-24T09:20:21;5.57;;;1.00;;
21326;SDS011;10822;51.532;6.770;2022-11-24T09:22:47;12.38;;;1.40;;
21326;SDS011;10822;51.532;6.770;2022-11-24T09:25:13;5.07;;;1.20;;
21326;SDS011;10822;51.532;6.770;2022-11-24T09:27:39;4.80;;;1.20;;
21326;SDS011;10822;51.532;6.770;2022-11-24T09:30:05;5.90;;;1.33;;
21326;SDS011;10822;51.532;6.770;2022-11-24T09:32:32;5.57;;;1.05;;
21326;SDS011;10822;51.532;6.770;2022-11-24T09:34:58;4.55;;;1.20;;
21326;SDS011;10822;51.532;6.770;2022-11-24T09:37:24;8.05;;;1.27;;
21326;SDS011;10822;51.532;6.770;2022-11-24T09:39:50;5.70;;;1.10;;
21326;SDS011;10822;51.532;6.770;2022-11-24T09:42:19;4.28;;;1.20;;
21326;SDS011;10822;51.532;6.770;2022-11-24T09:45:27;5.05;;;1.23;;
21326;SDS011;10822;51.532;6.770;2022-11-24T09:50:27;8.18;;;1.60;;
21326;SDS011;10822;51.532;6.770;2022-11-24T09:55:38;6.63;;;1.77;;
21326;SDS011;10822;51.532;6.770;2022-11-24T09:58:20;4.90;;;1.30;;
21326;SDS011;10822;51.532;6.770;2022-11-24T10:00:49;8.15;;;1.20;;
21326;SDS011;10822;51.532;6.770;2022-11-24T10:03:36;6.82;;;1.33;;
21326;SDS011;10822;51.532;6.770;2022-11-24T10:06:04;7.85;;;1.75;;
21326;SDS011;10822;51.532;6.770;2022-11-24T10:08:39;10.40;;;2.03;;
21326;SDS011;10822;51.532;6.770;2022-11-24T10:11:14;6.25;;;1.40;;
21326;SDS011;10822;51.532;6.770;2022-11-24T10:14:02;7.03;;;1.63;;
21326;SDS011;10822;51.532;6.770;2022-11-24T10:24:01;5.80;;;1.75;;
21326;SDS011;10822;51.532;6.770;2022-11-24T10:26:39;6.93;;;1.73;;
21326;SDS011;10822;51.532;6.770;2022-11-24T10:31:45;11.35;;;2.20;;
21326;SDS011;10822;51.532;6.770;2022-11-24T10:36:57;8.98;;;2.03;;
21326;SDS011;10822;51.532;6.770;2022-11-24T10:39:45;7.75;;;2.40;;
21326;SDS011;10822;51.532;6.770;2022-11-24T10:42:14;9.88;;;1.85;;
21326;SDS011;10822;51.532;6.770;2022-11-24T10:44:42;8.15;;;2.35;;
21326;SDS011;10822;51.532;6.770;2022-11-24T10:47:14;6.65;;;2.00;;
21326;SDS011;10822;51.532;6.770;2022-11-24T10:49:41;9.18;;;1.65;;
21326;SDS011;10822;51.532;6.770;2022-11-24T10:52:11;6.22;;;1.73;;
21326;SDS011;10822;51.532;6.770;2022-11-24T10:54:54;5.47;;;1.77;;
21326;SDS011;10822;51.532;6.770;2022-11-24T10:57:37;6.82;;;2.13;;
21326;SDS011;10822;51.532;6.770;2022-11-24T11:02:45;8.00;;;1.80;;
21326;SDS011;10822;51.532;6.770;2022-11-24T11:05:54;10.70;;;1.95;;
21326;SDS011;10822;51.532;6.770;2022-11-24T11:08:15;7.22;;;1.38;;
21326;SDS011;10822;51.532;6.770;2022-11-24T11:10:44;8.15;;;1.90;;
21326;SDS011;10822;51.532;6.770;2022-11-24T11:13:20;9.10;;;2.05;;
21326;SDS011;10822;51.532;6.770;2022-11-24T11:15:46;9.73;;;1.85;;
21326;SDS011;10822;51.532;6.770;2022-11-24T11:18:16;8.90;;;1.60;;
21326;SDS011;10822;51.532;6.770;2022-11-24T11:20:50;6.57;;;1.80;;
21326;SDS011;10822;51.532;6.770;2022-11-24T11:23:24;11.75;;;2.33;;
21326;SDS011;10822;51.532;6.770;2022-11-24T11:25:55;10.80;;;1.98;;
21326;SDS011;10822;51.532;6.770;2022-11-24T11:28:37;14.13;;;2.45;;
21326;SDS011;10822;51.532;6.770;2022-11-24T11:31:04;9.85;;;2.15;;
21326;SDS011;10822;51.532;6.770;2022-11-24T11:33:31;10.43;;;2.53;;
21326;SDS011;10822;51.532;6.770;2022-11-24T11:36:00;11.05;;;2.00;;
21326;SDS011;10822;51.532;6.770;2022-11-24T11:38:32;10.88;;;2.00;;
21326;SDS011;10822;51.532;6.770;2022-11-24T11:41:00;12.90;;;2.30;;
21326;SDS011;10822;51.532;6.770;2022-11-24T11:43:27;10.60;;;1.90;;
21326;SDS011;10822;51.532;6.770;2022-11-24T11:46:00;12.35;;;2.35;;
21326;SDS011;10822;51.532;6.770;2022-11-24T11:48:32;6.68;;;1.52;;
21326;SDS011;10822;51.532;6.770;2022-11-24T11:51:04;5.80;;;2.10;;
21326;SDS011;10822;51.532;6.770;2022-11-24T11:53:40;12.10;;;2.38;;
21326;SDS011;10822;51.532;6.770;2022-11-24T12:03:56;9.70;;;1.63;;
21326;SDS011;10822;51.532;6.770;2022-11-24T12:08:54;5.88;;;1.55;;
21326;SDS011;10822;51.532;6.770;2022-11-24T12:11:37;8.77;;;1.98;;
21326;SDS011;10822;51.532;6.770;2022-11-24T12:16:56;13.32;;;2.20;;
21326;SDS011;10822;51.532;6.770;2022-11-24T12:25:13;14.45;;;2.15;;
21326;SDS011;10822;51.532;6.770;2022-11-24T12:30:08;8.57;;;1.98;;
21326;SDS011;10822;51.532;6.770;2022-11-24T12:32:42;11.55;;;2.45;;
21326;SDS011;10822;51.532;6.770;2022-11-24T12:38:04;11.98;;;2.20;;
21326;SDS011;10822;51.532;6.770;2022-11-24T12:43:28;11.63;;;2.03;;
21326;SDS011;10822;51.532;6.770;2022-11-24T12:46:00;9.43;;;1.70;;
21326;SDS011;10822;51.532;6.770;2022-11-24T12:51:27;11.13;;;2.33;;
21326;SDS011;10822;51.532;6.770;2022-11-24T12:53:54;8.50;;;2.05;;
21326;SDS011;10822;51.532;6.770;2022-11-24T12:56:26;9.80;;;1.55;;
21326;SDS011;10822;51.532;6.770;2022-11-24T13:01:44;9.07;;;2.30;;
21326;SDS011;10822;51.532;6.770;2022-11-24T13:12:42;14.57;;;3.00;;
21326;SDS011;10822;51.532;6.770;2022-11-24T13:15:17;13.68;;;2.92;;
21326;SDS011;10822;51.532;6.770;2022-11-24T13:17:43;10.85;;;2.20;;
21326;SDS011;10822;51.532;6.770;2022-11-24T13:20:15;8.23;;;1.80;;
21326;SDS011;10822;51.532;6.770;2022-11-24T13:25:13;11.93;;;2.67;;
21326;SDS011;10822;51.532;6.770;2022-11-24T13:27:40;12.43;;;3.30;;
21326;SDS011;10822;51.532;6.770;2022-11-24T13:30:52;8.88;;;3.05;;
21326;SDS011;10822;51.532;6.770;2022-11-24T13:36:27;12.18;;;3.17;;
21326;SDS011;10822;51.532;6.770;2022-11-24T13:41:09;13.30;;;3.35;;
21326;SDS011;10822;51.532;6.770;2022-11-24T13:43:35;10.20;;;3.25;;
21326;SDS011;10822;51.532;6.770;2022-11-24T13:46:01;13.07;;;2.55;;
21326;SDS011;10822;51.532;6.770;2022-11-24T13:53:35;11.23;;;2.50;;
21326;SDS011;10822;51.532;6.770;2022-11-24T13:58:29;11.77;;;2.80;;
21326;SDS011;10822;51.532;6.770;2022-11-24T14:01:00;17.35;;;2.47;;
21326;SDS011;10822;51.532;6.770;2022-11-24T14:06:16;12.93;;;2.90;;
21326;SDS011;10822;51.532;6.770;2022-11-24T14:08:44;10.88;;;2.38;;
21326;SDS011;10822;51.532;6.770;2022-11-24T14:11:13;14.23;;;3.08;;
21326;SDS011;10822;51.532;6.770;2022-11-24T14:13:39;10.15;;;2.90;;
21326;SDS011;10822;51.532;6.770;2022-11-24T14:18:32;16.48;;;3.10;;
21326;SDS011;10822;51.532;6.770;2022-11-24T14:20:59;14.20;;;3.95;;
21326;SDS011;10822;51.532;6.770;2022-11-24T14:23:25;15.43;;;2.95;;
21326;SDS011;10822;51.532;6.770;2022-11-24T14:25:51;12.40;;;2.63;;
21326;SDS011;10822;51.532;6.770;2022-11-24T14:28:24;12.80;;;3.47;;
21326;SDS011;10822;51.532;6.770;2022-11-24T14:31:04;9.75;;;2.60;;
21326;SDS011;10822;51.532;6.770;2022-11-24T14:33:31;10.23;;;2.70;;
21326;SDS011;10822;51.532;6.770;2022-11-24T14:35:57;11.50;;;3.10;;
21326;SDS011;10822;51.532;6.770;2022-11-24T14:38:23;12.15;;;3.05;;
21326;SDS011;10822;51.532;6.770;2022-11-24T14:40:49;11.25;;;3.22;;
21326;SDS011;10822;51.532;6.770;2022-11-24T14:43:17;12.95;;;4.53;;
21326;SDS011;10822;51.532;6.770;2022-11-24T14:45:48;12.40;;;2.95;;
21326;SDS011;10822;51.532;6.770;2022-11-24T14:48:15;14.00;;;2.85;;
21326;SDS011;10822;51.532;6.770;2022-11-24T14:50:41;8.18;;;2.33;;
21326;SDS011;10822;51.532;6.770;2022-11-24T14:53:10;8.98;;;2.20;;
21326;SDS011;10822;51.532;6.770;2022-11-24T14:55:38;11.88;;;2.63;;
21326;SDS011;10822;51.532;6.770;2022-11-24T14:58:18;11.70;;;2.70;;
21326;SDS011;10822;51.532;6.770;2022-11-24T15:00:44;9.63;;;2.40;;
21326;SDS011;10822;51.532;6.770;2022-11-24T15:03:30;11.07;;;2.47;;
21326;SDS011;10822;51.532;6.770;2022-11-24T15:05:57;10.55;;;2.33;;
21326;SDS011;10822;51.532;6.770;2022-11-24T15:08:25;11.98;;;2.40;;
21326;SDS011;10822;51.532;6.770;2022-11-24T15:10:58;12.40;;;2.67;;
21326;SDS011;10822;51.532;6.770;2022-11-24T15:13:25;11.45;;;2.90;;
21326;SDS011;10822;51.532;6.770;2022-11-24T15:15:58;10.10;;;2.58;;
21326;SDS011;10822;51.532;6.770;2022-11-24T15:18:44;10.93;;;2.70;;
21326;SDS011;10822;51.532;6.770;2022-11-24T15:21:11;12.52;;;2.90;;
21326;SDS011;10822;51.532;6.770;2022-11-24T15:23:38;10.55;;;2.58;;
21326;SDS011;10822;51.532;6.770;2022-11-24T15:28:33;18.52;;;5.93;;
21326;SDS011;10822;51.532;6.770;2022-11-24T15:31:00;13.82;;;3.70;;
21326;SDS011;10822;51.532;6.770;2022-11-24T15:33:27;13.82;;;3.65;;
21326;SDS011;10822;51.532;6.770;2022-11-24T15:35:53;23.70;;;6.38;;
21326;SDS011;10822;51.532;6.770;2022-11-24T15:38:19;20.83;;;8.57;;
21326;SDS011;10822;51.532;6.770;2022-11-24T15:40:46;20.73;;;9.55;;
21326;SDS011;10822;51.532;6.770;2022-11-24T15:45:44;20.05;;;7.72;;
21326;SDS011;10822;51.532;6.770;2022-11-24T15:48:10;34.50;;;11.40;;
21326;SDS011;10822;51.532;6.770;2022-11-24T15:50:36;23.92;;;9.07;;
21326;SDS011;10822;51.532;6.770;2022-11-24T15:53:02;16.23;;;5.28;;
21326;SDS011;10822;51.532;6.770;2022-11-24T15:55:28;15.20;;;5.95;;
21326;SDS011;10822;51.532;6.770;2022-11-24T15:57:54;25.80;;;9.50;;
21326;SDS011;10822;51.532;6.770;2022-11-24T16:00:21;23.50;;;6.95;;
21326;SDS011;10822;51.532;6.770;2022-11-24T16:02:48;20.52;;;9.45;;
21326;SDS011;10822;51.532;6.770;2022-11-24T16:05:14;21.60;;;6.30;;
21326;SDS011;10822;51.532;6.770;2022-11-24T16:07:40;19.98;;;5.10;;
21326;SDS011;10822;51.532;6.770;2022-11-24T16:10:09;13.63;;;3.30;;
21326;SDS011;10822;51.532;6.770;2022-11-24T16:12:38;19.83;;;4.20;;
21326;SDS011;10822;51.532;6.770;2022-11-24T16:15:04;11.23;;;3.85;;
21326;SDS011;10822;51.532;6.770;2022-11-24T16:17:30;14.18;;;3.67;;
21326;SDS011;10822;51.532;6.770;2022-11-24T16:19:56;14.93;;;4.25;;